Home   Weather   Israel   Ramat Gan   Past weeks
Flag for Israel

Past Weather in Ramat Gan, Israel — Yesterday and Last 2 Weeks

Currently: 79 °F. Clear. (Weather station: Ben Gurion International Airport, Israel). See more current weather

Past Weather in Ramat Gan — Graph

°F

Ramat Gan Temperature Yesterday

Maximum temperature yesterday: 86 °F (at 2:50 pm)
Minimum temperature yesterday: 75 °F (at 7:50 am)
Average temperature yesterday: 80 °F

High & Low Weather Summary for the Past Weeks

 TemperatureHumidityPressure
High91 °F (Sep 24, 1:20 pm)89% (Sep 30, 2:20 am)30.04 "Hg (Sep 30, 2:20 am)
Low68 °F (Sep 26, 5:50 am)24% (Sep 27, 1:20 pm)29.71 "Hg (Oct 3, 3:50 am)
Average80 °F61%29.89 "Hg
* Reported Sep 21 5:20 pm — Oct 6 5:20 pm, Ramat Gan. Weather by CustomWeather, © 2022

Note: Actual official high and low records may vary slightly from our data, if they occured in-between our weather recording intervals... More about our weather records

Ramat Gan Weather History for the Previous 24 Hours

Scroll right to see more
 ConditionsComfort  
Time TempWeatherWind HumidityBarometerVisibility
5:20 pm
Thu, Oct 6
82 °FSunny.13 mph51%29.92 "Hg10 mi
4:20 pm84 °FSunny.13 mph51%29.89 "Hg10 mi
3:50 pm84 °FSunny.14 mph51%29.89 "Hg10 mi
3:20 pm84 °FSunny.13 mph51%29.92 "Hg10 mi
2:50 pm84 °FPassing clouds.14 mph55%29.92 "HgN/A
2:20 pm84 °FPassing clouds.14 mph55%29.92 "HgN/A
1:50 pm84 °FPassing clouds.13 mph55%29.92 "HgN/A
1:20 pm84 °FSunny.15 mph55%29.92 "Hg10 mi
11:50 am86 °FPassing clouds.8 mph46%29.95 "HgN/A
11:20 am84 °FPassing clouds.9 mph51%29.95 "HgN/A
10:50 am82 °FPassing clouds.7 mph55%29.95 "HgN/A
10:20 am82 °FPassing clouds.6 mph55%29.95 "HgN/A
9:50 am81 °FPassing clouds.7 mph58%29.98 "HgN/A
9:20 am79 °FPassing clouds.7 mph65%29.98 "HgN/A
8:50 am79 °FSunny.3 mph70%29.98 "Hg10 mi
8:20 am77 °FSunny.1 mph69%29.98 "Hg10 mi
7:50 am73 °FPassing clouds.3 mph78%29.98 "HgN/A
7:20 am72 °FPassing clouds.3 mph83%29.98 "HgN/A
6:50 am72 °FScattered clouds.3 mph83%29.98 "HgN/A
6:20 am72 °FPassing clouds.2 mph83%29.98 "HgN/A
5:20 am72 °FPassing clouds.2 mph83%29.98 "HgN/A
4:20 am72 °FPassing clouds.1 mph78%29.98 "HgN/A
3:50 am73 °FPassing clouds.3 mph78%29.98 "HgN/A
2:20 am73 °FPassing clouds.No wind74%29.98 "HgN/A
1:50 am73 °FPassing clouds.2 mph74%29.98 "HgN/A
1:20 am73 °FPassing clouds.3 mph74%29.98 "HgN/A
12:50 am75 °FPassing clouds.2 mph74%29.98 "HgN/A
12:20 am75 °FPassing clouds.2 mph74%29.98 "HgN/A
11:20 pm
Wed, Oct 5
77 °FClear.2 mph69%29.98 "Hg10 mi
10:50 pm77 °FClear.3 mph69%29.98 "Hg10 mi
10:20 pm77 °FClear.1 mph69%29.98 "Hg10 mi
9:50 pm77 °FClear.2 mph69%29.98 "Hg10 mi
9:20 pm79 °FClear.3 mph65%29.98 "Hg10 mi
8:50 pm79 °FClear.6 mph65%29.98 "Hg10 mi
8:20 pm79 °FClear.6 mph65%29.98 "Hg10 mi
7:50 pm79 °FClear.7 mph65%29.98 "Hg10 mi
Weather by CustomWeather, © 2022

See weather overview